Time;durP1;ratioP1;P1;durP2;ratioP2;P2;SDS_P1;SDS_P2;PMS_P1;PMS_P2;Temp;Humidity;BMP_temperature;BMP_pressure;BME280_temperature;BME280_humidity;BME280_pressure;Samples;Min_cycle;Max_cycle;Signal;HPM_P1;HPM_P2
2023/10/09 00:01:46;;;;;;;1.50;1.02;;;12.40;99.90;;;;;;5017991;28;20044;-67
2023/10/09 00:04:13;;;;;;;3.15;1.10;;;12.30;99.90;;;;;;5016938;28;20076;-67
2023/10/09 00:06:41;;;;;;;4.35;1.58;;;12.40;99.90;;;;;;5018019;28;20022;-67
2023/10/09 00:09:19;;;;;;;3.40;1.65;;;12.40;99.90;;;;;;5017841;28;20042;-67
2023/10/09 00:11:44;;;;;;;2.75;1.20;;;12.30;99.90;;;;;;5016773;28;20026;-67
2023/10/09 00:14:11;;;;;;;2.72;1.20;;;12.20;99.90;;;;;;5017008;28;20032;-67
2023/10/09 00:16:43;;;;;;;1.92;1.00;;;12.10;99.90;;;;;;5017793;28;20103;-67
2023/10/09 00:19:18;;;;;;;;;;;12.20;99.90;;;;;;5017287;28;20041;-67
2023/10/09 00:21:48;;;;;;;6.90;1.15;;;12.20;99.90;;;;;;5018107;28;19913;-67
2023/10/09 00:24:21;;;;;;;3.40;1.20;;;12.20;99.90;;;;;;5017717;28;20105;-67
2023/10/09 00:26:47;;;;;;;2.17;1.35;;;12.20;99.90;;;;;;5017701;28;20022;-67
2023/10/09 00:29:23;;;;;;;1.23;1.10;;;12.20;99.90;;;;;;5017447;28;20053;-67
2023/10/09 00:32:05;;;;;;;2.10;1.13;;;12.30;99.90;;;;;;5016875;28;20036;-67
2023/10/09 00:34:39;;;;;;;2.95;1.30;;;12.20;99.90;;;;;;5016543;28;20099;-67
2023/10/09 00:37:09;;;;;;;4.20;1.90;;;12.30;99.90;;;;;;5017536;28;20022;-67
2023/10/09 00:39:42;;;;;;;5.07;1.40;;;12.30;99.90;;;;;;5017281;28;20022;-67
2023/10/09 00:42:12;;;;;;;2.30;1.10;;;12.30;99.90;;;;;;5016851;28;20037;-67
2023/10/09 00:44:48;;;;;;;1.85;1.25;;;12.30;99.90;;;;;;5017436;28;20042;-67
2023/10/09 00:47:22;;;;;;;4.28;1.40;;;12.40;99.90;;;;;;5016296;28;20023;-67
2023/10/09 00:50:00;;;;;;;3.45;1.30;;;12.50;99.90;;;;;;5017378;28;20042;-67
2023/10/09 00:52:42;;;;;;;5.97;1.75;;;12.50;99.90;;;;;;5017136;28;20050;-67
2023/10/09 00:55:13;;;;;;;6.10;1.50;;;12.60;99.90;;;;;;5017451;28;20100;-67
2023/10/09 00:57:59;;;;;;;4.13;1.83;;;12.50;99.90;;;;;;5017176;28;20069;-67
2023/10/09 01:00:32;;;;;;;3.55;1.80;;;12.50;99.90;;;;;;5017341;28;20022;-67
2023/10/09 01:03:19;;;;;;;4.40;2.10;;;12.50;99.90;;;;;;5017454;28;20025;-67
2023/10/09 01:05:57;;;;;;;1.85;1.20;;;12.50;99.90;;;;;;5017155;28;20018;-67
2023/10/09 01:11:18;;;;;;;2.75;1.50;;;12.10;99.90;;;;;;5017323;28;20025;-67
2023/10/09 01:16:23;;;;;;;3.13;1.60;;;11.90;99.90;;;;;;5017317;28;20029;-67
2023/10/09 01:18:57;;;;;;;2.17;1.20;;;11.90;99.90;;;;;;5016013;28;20080;-67
2023/10/09 01:21:26;;;;;;;2.20;1.60;;;12.00;99.90;;;;;;5016150;28;20089;-67
2023/10/09 01:26:44;;;;;;;1.73;1.50;;;11.90;99.90;;;;;;5017274;28;20049;-67
2023/10/09 01:29:14;;;;;;;5.22;1.38;;;11.90;99.90;;;;;;5016936;28;20080;-68
2023/10/09 01:31:50;;;;;;;2.47;1.35;;;12.00;99.90;;;;;;5016708;28;20033;-67
2023/10/09 01:34:17;;;;;;;4.22;1.30;;;12.00;99.90;;;;;;5016219;28;20084;-67
2023/10/09 01:36:43;;;;;;;6.53;1.60;;;12.00;99.90;;;;;;5016766;28;20022;-67
2023/10/09 01:39:21;;;;;;;3.58;1.60;;;12.10;99.90;;;;;;5016804;28;20033;-67
2023/10/09 01:41:47;;;;;;;3.83;2.33;;;12.10;99.90;;;;;;5015698;28;20095;-67
2023/10/09 01:44:16;;;;;;;2.83;2.00;;;11.90;99.90;;;;;;5016723;28;20045;-67
2023/10/09 01:46:42;;;;;;;2.22;1.80;;;11.90;99.90;;;;;;5016921;28;20026;-67
2023/10/09 01:49:16;;;;;;;3.00;1.77;;;11.90;99.90;;;;;;5016875;28;20021;-67
2023/10/09 01:51:41;;;;;;;6.20;1.60;;;11.90;99.90;;;;;;5016941;28;20052;-68
2023/10/09 01:54:07;;;;;;;5.38;1.85;;;11.90;99.90;;;;;;5019795;28;20034;-67
2023/10/09 01:56:36;;;;;;;4.13;1.40;;;11.90;99.90;;;;;;5020253;28;20026;-67
2023/10/09 01:59:05;;;;;;;3.20;1.60;;;11.80;99.90;;;;;;5020590;28;20029;-67
2023/10/09 02:01:32;;;;;;;3.25;1.55;;;11.60;99.90;;;;;;5020103;28;20105;-68
2023/10/09 02:04:05;;;;;;;3.15;1.67;;;11.60;99.90;;;;;;5019720;28;20025;-67
2023/10/09 02:06:32;;;;;;;2.58;1.70;;;11.60;99.90;;;;;;5020775;28;20029;-67
2023/10/09 02:08:59;;;;;;;3.42;2.15;;;11.60;99.90;;;;;;5020083;28;20022;-67
2023/10/09 02:11:36;;;;;;;7.47;3.08;;;11.70;99.90;;;;;;5020052;28;20050;-67
2023/10/09 02:14:05;;;;;;;4.15;1.92;;;11.80;99.90;;;;;;5019621;28;20034;-68
2023/10/09 02:16:41;;;;;;;3.67;1.80;;;11.90;99.90;;;;;;5019924;28;20097;-67
2023/10/09 02:19:13;;;;;;;5.05;1.90;;;12.00;99.90;;;;;;5019056;28;20026;-67
2023/10/09 02:21:46;;;;;;;3.28;2.00;;;11.90;99.90;;;;;;5057034;22;20057;-73
2023/10/09 02:24:26;;;;;;;3.72;1.65;;;11.80;99.90;;;;;;5038688;28;20131;-74
2023/10/09 02:29:17;;;;;;;2.40;1.77;;;11.70;99.90;;;;;;5039935;28;20025;-74
2023/10/09 02:31:44;;;;;;;3.10;1.80;;;11.60;99.90;;;;;;5039247;28;20029;-73
2023/10/09 02:34:12;;;;;;;2.65;1.40;;;11.60;99.90;;;;;;5039329;28;20029;-73
2023/10/09 02:36:41;;;;;;;2.40;1.38;;;11.60;99.90;;;;;;5038416;28;20026;-74
2023/10/09 02:39:07;;;;;;;6.65;1.70;;;11.70;99.90;;;;;;5039403;28;20048;-74
2023/10/09 02:41:49;;;;;;;2.92;1.80;;;11.70;99.90;;;;;;5038213;28;20116;-65
2023/10/09 02:44:15;;;;;;;2.00;1.48;;;11.70;99.90;;;;;;5039271;28;20052;-65
2023/10/09 02:46:44;;;;;;;1.60;1.50;;;11.70;99.90;;;;;;5039145;28;20018;-65
2023/10/09 02:49:15;;;;;;;2.30;1.40;;;11.50;99.90;;;;;;5039277;28;20014;-65
2023/10/09 02:51:44;;;;;;;3.25;1.27;;;11.50;99.90;;;;;;5039078;28;20028;-68
2023/10/09 02:54:26;;;;;;;5.57;1.65;;;11.50;99.90;;;;;;5038069;28;20029;-68
2023/10/09 03:00:18;;;;;;;3.55;1.48;;;11.60;99.90;;;;;;5039317;28;20032;-65
2023/10/09 03:02:46;;;;;;;5.85;1.70;;;11.70;99.90;;;;;;5038115;28;20088;-65
2023/10/09 03:05:12;;;;;;;2.20;1.73;;;11.80;99.90;;;;;;5037993;28;20026;-66
2023/10/09 03:07:39;;;;;;;5.60;1.55;;;11.90;99.90;;;;;;5038907;28;20125;-66
2023/10/09 03:10:09;;;;;;;3.13;1.88;;;11.90;99.90;;;;;;5037761;28;20044;-65
2023/10/09 03:12:35;;;;;;;3.50;1.63;;;11.80;99.90;;;;;;5038904;28;20028;-65
2023/10/09 03:15:02;;;;;;;4.40;1.67;;;11.90;99.90;;;;;;5038578;28;20025;-66
2023/10/09 03:17:27;;;;;;;3.15;1.65;;;11.80;99.90;;;;;;5038449;28;20021;-65
2023/10/09 03:19:53;;;;;;;4.75;1.92;;;11.70;99.90;;;;;;5037513;28;20017;-73
2023/10/09 03:22:19;;;;;;;3.40;1.50;;;11.70;99.90;;;;;;5038357;28;20026;-74
2023/10/09 03:24:44;;;;;;;4.50;1.20;;;11.60;99.90;;;;;;5038413;28;20094;-73
2023/10/09 03:27:11;;;;;;;3.97;1.65;;;11.50;99.90;;;;;;5038463;28;20085;-74
2023/10/09 03:29:37;;;;;;;2.47;1.90;;;11.40;99.90;;;;;;5038578;28;20018;-74
2023/10/09 03:32:03;;;;;;;1.98;1.15;;;11.40;99.90;;;;;;5037379;28;20025;-74
2023/10/09 03:34:30;;;;;;;4.70;1.70;;;11.50;99.90;;;;;;5037446;28;20025;-74
2023/10/09 03:37:06;;;;;;;2.17;1.30;;;11.60;99.90;;;;;;5037552;28;20036;-65
2023/10/09 03:39:41;;;;;;;3.67;1.35;;;11.70;99.90;;;;;;5037351;28;20108;-66
2023/10/09 03:42:11;;;;;;;4.53;1.50;;;11.80;99.90;;;;;;5038069;28;20021;-68
2023/10/09 03:44:41;;;;;;;2.47;1.42;;;11.80;99.90;;;;;;5037230;28;20022;-68
2023/10/09 03:47:10;;;;;;;5.88;2.80;;;11.80;99.90;;;;;;5038092;28;20013;-73
2023/10/09 03:49:39;;;;;;;2.42;1.38;;;11.70;99.90;;;;;;5037053;28;20075;-74
2023/10/09 03:52:06;;;;;;;4.22;1.40;;;11.70;99.90;;;;;;5037078;28;20045;-73
2023/10/09 03:54:34;;;;;;;1.48;1.10;;;11.70;99.90;;;;;;5038066;28;20021;-73
2023/10/09 03:57:00;;;;;;;3.20;1.50;;;11.60;99.90;;;;;;5037861;28;20056;-74
2023/10/09 03:59:30;;;;;;;6.72;1.67;;;11.60;99.90;;;;;;5038157;28;20029;-73
2023/10/09 04:01:57;;;;;;;2.60;1.38;;;11.60;99.90;;;;;;5037584;28;20032;-68
2023/10/09 04:04:24;;;;;;;3.90;1.70;;;11.60;99.90;;;;;;5037676;28;20120;-65
2023/10/09 04:06:51;;;;;;;4.53;1.60;;;11.60;99.90;;;;;;5036953;28;20029;-65
2023/10/09 04:11:46;;;;;;;8.55;2.25;;;11.70;99.90;;;;;;5037799;28;20025;-74
2023/10/09 04:14:31;;;;;;;8.80;2.13;;;11.80;99.90;;;;;;5036391;28;20060;-68
2023/10/09 04:17:08;;;;;;;7.13;2.35;;;11.80;99.90;;;;;;5037436;28;20118;-68
2023/10/09 04:22:27;;;;;;;7.32;1.77;;;11.80;99.90;;;;;;5016467;28;20041;-68
2023/10/09 04:24:53;;;;;;;6.45;2.50;;;11.90;99.90;;;;;;5037552;28;20104;-68
2023/10/09 04:27:26;;;;;;;3.20;2.13;;;12.00;99.90;;;;;;5037209;28;20160;-68
2023/10/09 04:29:54;;;;;;;6.68;2.22;;;11.90;99.90;;;;;;5036455;28;20036;-68
2023/10/09 04:32:19;;;;;;;7.85;1.98;;;11.90;99.90;;;;;;5037190;28;20037;-73
2023/10/09 04:34:48;;;;;;;4.30;1.95;;;11.90;99.90;;;;;;5036861;28;20162;-68
2023/10/09 04:39:47;;;;;;;5.43;2.10;;;11.90;99.90;;;;;;5037395;28;20124;-68
2023/10/09 04:42:58;;;;;;;6.63;2.15;;;11.90;99.90;;;;;;5037274;28;20025;-68
2023/10/09 04:47:37;;;;;;;6.60;2.28;;;11.80;99.90;;;;;;5037634;28;20021;-68
2023/10/09 04:50:11;;;;;;;8.50;2.28;;;11.80;99.90;;;;;;5037067;28;20022;-68
2023/10/09 04:57:45;;;;;;;3.97;1.83;;;11.70;99.90;;;;;;5037025;28;20032;-68
2023/10/09 05:02:54;;;;;;;2.95;1.70;;;11.70;99.90;;;;;;5037205;28;20026;-68
2023/10/09 05:08:19;;;;;;;6.18;2.05;;;11.70;99.90;;;;;;5037325;28;20026;-65
2023/10/09 05:16:22;;;;;;;5.70;2.10;;;11.70;99.90;;;;;;5036952;28;20029;-74
2023/10/09 05:18:55;;;;;;;7.93;2.30;;;11.70;99.90;;;;;;5036727;28;20108;-68
2023/10/09 05:21:44;;;;;;;9.10;2.30;;;11.70;99.90;;;;;;5036570;28;20065;-70
2023/10/09 05:37:33;;;;;;;3.58;2.10;;;11.80;99.90;;;;;;5040783;28;20025;-68
2023/10/09 05:47:53;;;;;;;8.60;2.08;;;12.00;99.90;;;;;;5040567;28;20026;-68
2023/10/09 06:03:53;;;;;;;4.18;2.13;;;12.00;99.90;;;;;;5040466;28;20062;-68
2023/10/09 06:11:38;;;;;;;14.43;3.95;;;12.30;99.90;;;;;;5040098;28;20021;-68
2023/10/09 06:24:42;;;;;;;7.13;4.57;;;12.30;99.90;;;;;;5040242;28;20095;-68
2023/10/09 06:34:51;;;;;;;8.93;4.00;;;12.30;99.90;;;;;;5039883;28;20030;-68
2023/10/09 06:45:16;;;;;;;10.70;5.25;;;12.50;99.90;;;;;;5039550;28;20030;-68
2023/10/09 06:55:48;;;;;;;11.75;4.72;;;12.40;99.90;;;;;;5039610;28;20029;-68
2023/10/09 06:58:26;;;;;;;15.32;5.30;;;12.50;99.90;;;;;;5039147;28;20022;-68
2023/10/09 07:03:29;;;;;;;10.75;5.15;;;12.70;99.90;;;;;;5038952;28;20013;-68
2023/10/09 07:17:15;;;;;;;10.45;5.18;;;12.90;99.90;;;;;;5039312;28;20030;-68
2023/10/09 07:35:47;;;;;;;12.85;5.28;;;13.00;99.90;;;;;;5038856;28;20057;-68
2023/10/09 07:38:19;;;;;;;9.45;5.22;;;13.00;99.90;;;;;;5037334;28;20053;-68
2023/10/09 07:40:59;;;;;;;11.68;5.32;;;13.00;99.90;;;;;;5037371;28;20033;-68
2023/10/09 07:43:35;;;;;;;15.30;6.30;;;13.00;99.90;;;;;;5038226;28;20023;-68
2023/10/09 07:48:52;;;;;;;15.40;5.57;;;13.10;99.90;;;;;;5038457;28;20193;-68
2023/10/09 07:51:30;;;;;;;13.90;6.63;;;13.10;99.90;;;;;;5036864;28;20022;-69
2023/10/09 07:53:57;;;;;;;16.52;6.25;;;13.10;99.90;;;;;;5038124;28;20026;-69
2023/10/09 07:56:30;;;;;;;15.00;5.97;;;13.20;99.90;;;;;;5037026;28;20079;-69
2023/10/09 07:59:00;;;;;;;14.70;5.93;;;13.30;99.90;;;;;;5038010;28;20021;-69
2023/10/09 08:03:57;;;;;;;16.23;6.93;;;13.40;99.90;;;;;;5038029;28;20025;-69
2023/10/09 08:06:38;;;;;;;14.20;7.10;;;13.40;99.90;;;;;;5037990;28;20048;-69
2023/10/09 08:16:47;;;;;;;11.87;6.43;;;13.30;99.90;;;;;;5038002;28;20037;-69
2023/10/09 08:24:41;;;;;;;12.02;6.57;;;13.40;99.90;;;;;;5018111;28;20040;-66
2023/10/09 08:30:12;;;;;;;11.40;5.82;;;13.50;99.90;;;;;;5017897;28;20036;-66
2023/10/09 08:32:38;;;;;;;18.45;6.95;;;13.50;99.90;;;;;;4998062;28;20026;-66
2023/10/09 08:35:18;;;;;;;11.55;6.07;;;13.60;99.90;;;;;;4997051;28;20034;-65
2023/10/09 08:37:48;;;;;;;13.57;6.13;;;13.60;99.90;;;;;;4997130;28;20097;-65
2023/10/09 08:40:13;;;;;;;18.75;6.18;;;13.60;99.90;;;;;;4996648;28;20022;-66
2023/10/09 08:42:39;;;;;;;14.68;5.88;;;13.70;99.90;;;;;;4996992;28;20029;-66
2023/10/09 08:45:06;;;;;;;15.27;6.88;;;13.80;99.90;;;;;;4997291;28;20030;-66
2023/10/09 08:47:33;;;;;;;10.98;5.20;;;13.80;99.90;;;;;;4996751;28;20029;-66
2023/10/09 08:49:59;;;;;;;11.77;5.45;;;13.80;99.90;;;;;;4997695;28;20022;-66
2023/10/09 08:52:25;;;;;;;11.63;5.65;;;13.90;99.90;;;;;;4997875;28;20030;-66
2023/10/09 08:54:50;;;;;;;14.07;5.35;;;13.90;99.90;;;;;;4997694;28;20026;-66
2023/10/09 08:57:18;;;;;;;9.55;4.90;;;14.00;99.90;;;;;;4996634;28;20050;-66
2023/10/09 08:59:44;;;;;;;7.25;4.60;;;14.10;99.90;;;;;;4997549;28;20106;-65
2023/10/09 09:02:11;;;;;;;11.32;5.57;;;14.20;99.90;;;;;;4997101;28;20047;-66
2023/10/09 09:04:41;;;;;;;9.98;4.63;;;14.40;99.90;;;;;;4997466;28;20101;-66
2023/10/09 09:07:28;;;;;;;6.30;4.07;;;14.60;99.90;;;;;;4997465;28;20026;-66
2023/10/09 09:09:57;;;;;;;11.15;5.07;;;14.70;99.90;;;;;;4997466;28;20015;-66
2023/10/09 09:12:23;;;;;;;17.33;6.35;;;14.70;99.90;;;;;;4996722;28;20033;-66
2023/10/09 09:14:50;;;;;;;12.50;5.30;;;14.70;99.90;;;;;;4997387;28;20018;-66
2023/10/09 09:17:30;;;;;;;14.35;6.55;;;14.60;99.90;;;;;;4997322;28;20026;-66
2023/10/09 09:19:57;;;;;;;14.70;5.95;;;14.60;99.90;;;;;;4996595;28;20137;-66
2023/10/09 09:22:23;;;;;;;10.00;4.95;;;14.60;99.90;;;;;;4996540;28;20037;-66
2023/10/09 09:25:03;;;;;;;12.82;5.18;;;14.60;99.90;;;;;;4997522;28;20026;-66
2023/10/09 09:27:55;;;;;;;8.15;4.88;;;14.60;99.90;;;;;;4997460;28;20023;-66
2023/10/09 09:30:35;;;;;;;9.95;4.78;;;14.60;99.90;;;;;;4997315;28;20023;-66
2023/10/09 09:33:20;;;;;;;15.38;5.18;;;14.60;99.90;;;;;;4997350;28;20065;-66
2023/10/09 09:36:00;;;;;;;14.07;6.75;;;14.70;99.90;;;;;;4996952;28;20023;-66
2023/10/09 09:38:27;;;;;;;16.38;6.70;;;14.70;99.90;;;;;;4996933;28;20022;-66
2023/10/09 09:40:56;;;;;;;11.45;5.97;;;14.70;99.90;;;;;;4996991;28;20036;-66
2023/10/09 09:43:23;;;;;;;10.48;4.80;;;14.80;99.90;;;;;;4996480;28;20033;-66
2023/10/09 09:45:52;;;;;;;10.35;4.82;;;14.90;99.90;;;;;;4997084;28;20018;-66
2023/10/09 09:48:18;;;;;;;10.00;4.05;;;15.00;99.90;;;;;;4997312;28;20014;-66
2023/10/09 09:50:44;;;;;;;14.88;4.85;;;15.20;99.90;;;;;;4996054;28;20037;-66
2023/10/09 09:53:19;;;;;;;18.80;4.85;;;15.30;99.90;;;;;;4997080;28;20019;-66
2023/10/09 09:55:57;;;;;;;8.98;4.70;;;15.30;99.90;;;;;;4996120;28;20029;-66
2023/10/09 09:58:26;;;;;;;10.02;4.95;;;15.30;99.90;;;;;;4997524;28;20031;-66
2023/10/09 10:00:56;;;;;;;16.52;5.18;;;15.30;99.90;;;;;;4996661;28;20049;-66
2023/10/09 10:03:25;;;;;;;11.93;6.00;;;15.20;99.90;;;;;;4996984;28;20019;-66
2023/10/09 10:05:52;;;;;;;16.83;6.15;;;15.10;99.90;;;;;;4996969;28;20022;-66
2023/10/09 10:08:20;;;;;;;12.23;5.47;;;15.10;99.90;;;;;;4996173;28;20019;-66
2023/10/09 10:10:52;;;;;;;14.05;6.05;;;15.10;99.90;;;;;;4996500;28;20053;-66
2023/10/09 10:13:38;;;;;;;16.25;6.13;;;15.10;99.90;;;;;;4997899;28;20143;-66
2023/10/09 10:19:21;;;;;;;15.05;5.75;;;15.20;99.90;;;;;;5000640;28;20030;-66
2023/10/09 10:21:50;;;;;;;14.20;5.50;;;15.20;99.90;;;;;;5000366;28;20088;-65
2023/10/09 10:24:30;;;;;;;12.85;5.65;;;15.10;99.90;;;;;;5000263;28;20048;-66
2023/10/09 10:27:33;;;;;;;18.00;6.22;;;15.10;99.90;;;;;;5000102;28;20026;-66
2023/10/09 10:30:13;;;;;;;9.52;4.82;;;15.20;99.90;;;;;;5000028;28;20030;-66
2023/10/09 10:33:15;;;;;;;20.27;5.40;;;15.20;99.90;;;;;;4999988;28;20057;-65
2023/10/09 10:38:42;;;;;;;12.88;5.78;;;15.20;99.90;;;;;;4940601;29;20020;-66
2023/10/09 10:41:19;;;;;;;11.48;5.63;;;15.30;99.90;;;;;;4924297;29;20036;-66
2023/10/09 10:46:24;;;;;;;12.65;5.18;;;15.40;99.90;;;;;;4940636;29;20034;-66
2023/10/09 10:48:59;;;;;;;15.85;4.95;;;15.50;99.90;;;;;;4956836;29;20028;-66
2023/10/09 10:51:37;;;;;;;9.07;4.65;;;15.70;99.90;;;;;;4940225;29;20023;-66
2023/10/09 10:56:48;;;;;;;12.43;5.28;;;15.80;99.90;;;;;;4940458;29;20054;-66
2023/10/09 10:59:22;;;;;;;10.93;4.32;;;15.90;99.90;;;;;;4924433;29;20035;-66
2023/10/09 11:02:13;;;;;;;15.20;4.40;;;16.10;99.90;;;;;;4940323;29;20035;-66
2023/10/09 11:04:43;;;;;;;13.60;4.37;;;16.30;99.90;;;;;;4955910;29;20072;-66
2023/10/09 11:07:09;;;;;;;9.57;4.40;;;16.50;99.90;;;;;;4939946;29;20271;-66
2023/10/09 11:10:09;;;;;;;8.48;4.70;;;16.60;99.90;;;;;;4939957;29;20110;-66
2023/10/09 11:15:46;;;;;;;10.93;4.85;;;16.90;99.90;;;;;;4977220;28;20034;-66
2023/10/09 11:18:27;;;;;;;11.75;5.35;;;16.90;99.90;;;;;;4999319;28;20023;-66
2023/10/09 11:28:57;;;;;;;13.95;6.32;;;17.50;99.90;;;;;;4999549;28;20094;-66
2023/10/09 11:31:23;;;;;;;13.77;5.55;;;17.50;99.90;;;;;;4999211;28;20033;-66
2023/10/09 11:33:52;;;;;;;15.63;5.57;;;17.40;99.90;;;;;;4998964;28;20026;-66
2023/10/09 11:36:28;;;;;;;10.45;5.40;;;17.40;99.90;;;;;;4999112;28;20026;-66
2023/10/09 11:39:12;;;;;;;11.93;5.20;;;17.50;99.90;;;;;;4999192;28;20114;-66
2023/10/09 11:41:44;;;;;;;16.08;5.63;;;17.50;99.90;;;;;;4999020;28;20089;-66
2023/10/09 11:44:23;;;;;;;14.20;4.70;;;17.60;99.90;;;;;;4998142;28;20029;-66
2023/10/09 11:47:23;;;;;;;13.68;4.88;;;17.60;99.90;;;;;;4998998;28;20031;-66
2023/10/09 11:49:57;;;;;;;17.83;5.40;;;17.30;99.90;;;;;;4997825;28;20033;-66
2023/10/09 11:52:35;;;;;;;16.30;5.30;;;17.20;99.90;;;;;;4998071;28;20034;-66
2023/10/09 11:55:14;;;;;;;8.90;4.68;;;17.10;99.90;;;;;;4998735;28;20041;-66
2023/10/09 11:57:40;;;;;;;12.98;5.32;;;17.00;99.90;;;;;;4998933;28;20026;-66
2023/10/09 12:00:28;;;;;;;16.02;5.85;;;17.10;99.90;;;;;;4998605;28;20044;-66
2023/10/09 12:02:52;;;;;;;8.80;4.00;;;17.10;99.90;;;;;;4998714;28;20102;-66
2023/10/09 12:05:18;;;;;;;9.98;4.72;;;17.10;99.90;;;;;;4998945;28;20105;-66
2023/10/09 12:07:45;;;;;;;9.23;4.07;;;17.10;99.90;;;;;;4998429;28;20022;-66
2023/10/09 12:10:13;;;;;;;11.27;4.88;;;17.10;99.90;;;;;;4998307;28;20034;-66
2023/10/09 12:12:46;;;;;;;10.07;4.38;;;17.10;99.90;;;;;;4997673;28;20046;-66
2023/10/09 12:15:17;;;;;;;17.98;5.20;;;17.30;99.90;;;;;;4997270;28;20049;-66
2023/10/09 12:17:47;;;;;;;6.82;3.38;;;17.60;99.90;;;;;;4998350;28;20033;-66
2023/10/09 12:20:32;;;;;;;12.00;4.72;;;17.90;99.90;;;;;;4997183;28;20029;-66
2023/10/09 12:23:05;;;;;;;8.32;3.40;;;18.10;99.90;;;;;;4998398;28;20035;-66
2023/10/09 12:25:33;;;;;;;17.63;3.97;;;18.40;99.90;;;;;;4998365;28;20026;-66
2023/10/09 12:28:01;;;;;;;10.35;4.22;;;18.60;99.90;;;;;;4997174;28;20029;-66
2023/10/09 12:30:30;;;;;;;6.10;3.10;;;18.70;99.90;;;;;;4998198;28;20023;-66
2023/10/09 12:32:57;;;;;;;9.05;3.83;;;18.80;99.90;;;;;;4997999;28;20104;-66
2023/10/09 12:35:27;;;;;;;7.93;3.70;;;18.80;99.90;;;;;;4996681;28;20109;-66
2023/10/09 12:37:56;;;;;;;9.48;3.50;;;18.90;99.90;;;;;;4997846;28;20077;-66
2023/10/09 12:40:29;;;;;;;10.43;4.03;;;18.90;99.90;;;;;;4996723;28;20112;-66
2023/10/09 12:42:58;;;;;;;11.25;3.97;;;19.00;99.90;;;;;;4998153;28;20027;-66
2023/10/09 12:45:32;;;;;;;6.72;3.28;;;19.00;99.90;;;;;;4997473;28;20022;-66
2023/10/09 12:47:59;;;;;;;9.80;3.85;;;18.90;99.90;;;;;;4997863;28;20026;-66
2023/10/09 12:50:28;;;;;;;13.05;4.75;;;19.00;99.90;;;;;;4997597;28;20030;-66
2023/10/09 12:53:06;;;;;;;7.15;3.67;;;19.00;99.90;;;;;;4997690;28;20028;-66
2023/10/09 12:55:41;;;;;;;7.55;3.85;;;19.00;99.90;;;;;;4997605;28;20022;-66
2023/10/09 12:58:15;;;;;;;9.02;3.50;;;19.00;99.90;;;;;;4997348;28;20027;-66
2023/10/09 13:00:48;;;;;;;7.60;3.60;;;18.90;99.90;;;;;;4997670;28;20038;-66
2023/10/09 13:03:17;;;;;;;9.00;3.78;;;18.90;99.90;;;;;;4997513;28;20018;-66
2023/10/09 13:05:58;;;;;;;8.13;3.67;;;19.10;99.90;;;;;;4997764;28;20081;-66
2023/10/09 13:08:40;;;;;;;5.32;3.00;;;19.20;99.90;;;;;;4996878;28;20170;-66
2023/10/09 13:11:10;;;;;;;7.30;3.67;;;19.00;99.90;;;;;;4997406;28;20029;-66
2023/10/09 13:13:40;;;;;;;7.53;3.38;;;18.80;99.90;;;;;;4996891;28;20058;-66
2023/10/09 13:16:24;;;;;;;14.80;3.65;;;18.80;99.90;;;;;;4997305;28;20026;-66
2023/10/09 13:18:54;;;;;;;12.80;3.97;;;18.70;99.90;;;;;;4997745;28;20057;-66
2023/10/09 13:21:26;;;;;;;11.00;3.67;;;18.70;99.90;;;;;;4997124;28;20027;-66
2023/10/09 13:23:52;;;;;;;7.80;3.55;;;18.70;99.90;;;;;;4997562;28;20091;-66
2023/10/09 13:26:18;;;;;;;8.95;3.17;;;19.00;99.90;;;;;;4996510;28;20038;-66
2023/10/09 13:28:45;;;;;;;10.27;3.20;;;19.10;99.90;;;;;;4996464;28;20022;-66
2023/10/09 13:31:15;;;;;;;8.93;3.42;;;19.00;99.90;;;;;;4996656;28;20030;-66
2023/10/09 13:33:42;;;;;;;8.55;3.95;;;19.00;99.90;;;;;;4997052;28;20054;-66
2023/10/09 13:36:19;;;;;;;10.88;3.35;;;19.10;99.90;;;;;;4997608;28;20026;-66
2023/10/09 13:38:45;;;;;;;9.80;3.70;;;19.10;99.90;;;;;;4997049;28;20057;-66
2023/10/09 13:41:15;;;;;;;9.25;3.63;;;19.00;99.90;;;;;;4997458;28;20026;-66
2023/10/09 13:43:42;;;;;;;9.50;3.28;;;18.90;99.90;;;;;;4996404;28;20022;-66
2023/10/09 13:46:09;;;;;;;11.70;3.75;;;19.20;99.90;;;;;;4996526;28;20022;-66
2023/10/09 13:48:38;;;;;;;7.82;3.63;;;19.40;99.90;;;;;;5000379;28;20033;-66
2023/10/09 13:51:08;;;;;;;9.30;3.40;;;19.30;99.90;;;;;;5001051;28;20033;-66
2023/10/09 13:53:44;;;;;;;10.02;3.53;;;19.20;99.90;;;;;;5001059;28;20165;-66
2023/10/09 13:56:14;;;;;;;9.48;3.08;;;19.10;99.90;;;;;;5000359;28;20092;-66
2023/10/09 13:58:43;;;;;;;10.23;3.72;;;19.00;99.90;;;;;;5000961;28;20090;-66
2023/10/09 14:01:09;;;;;;;9.05;3.95;;;18.90;99.90;;;;;;4999755;28;20109;-66
2023/10/09 14:03:35;;;;;;;11.63;3.60;;;18.90;99.90;;;;;;5000021;28;20042;-66
2023/10/09 14:06:10;;;;;;;9.32;3.88;;;18.90;99.90;;;;;;5000987;28;20031;-66
2023/10/09 14:08:41;;;;;;;8.90;3.33;;;19.10;99.90;;;;;;5001305;28;20069;-66
2023/10/09 14:11:13;;;;;;;11.48;3.80;;;19.10;99.90;;;;;;5000697;28;20022;-66
2023/10/09 14:13:39;;;;;;;7.55;3.47;;;19.10;99.90;;;;;;4999718;28;20028;-66
2023/10/09 14:16:06;;;;;;;7.80;3.67;;;19.00;99.90;;;;;;4999730;28;20040;-66
2023/10/09 14:18:32;;;;;;;12.07;3.28;;;18.90;99.90;;;;;;5000517;28;20026;-66
2023/10/09 14:21:04;;;;;;;10.15;3.65;;;18.90;99.90;;;;;;5029877;22;20044;-68
2023/10/09 14:23:34;;;;;;;7.10;3.95;;;19.00;99.90;;;;;;5040257;28;20030;-68
2023/10/09 14:26:01;;;;;;;8.05;3.67;;;19.10;99.90;;;;;;5039625;28;20033;-68
2023/10/09 14:28:28;;;;;;;7.40;3.88;;;19.30;99.90;;;;;;5039848;28;20033;-68
2023/10/09 14:30:59;;;;;;;5.70;3.17;;;19.50;99.90;;;;;;5039579;28;20020;-68
2023/10/09 14:33:27;;;;;;;9.60;3.80;;;19.80;99.90;;;;;;5038783;28;20018;-68
2023/10/09 14:35:54;;;;;;;8.63;3.63;;;19.80;99.90;;;;;;5039723;28;20021;-68
2023/10/09 14:38:26;;;;;;;11.15;4.00;;;19.80;99.90;;;;;;5039616;28;20025;-68
2023/10/09 14:40:57;;;;;;;7.65;3.67;;;19.80;99.90;;;;;;5039759;28;20033;-68
2023/10/09 14:43:27;;;;;;;8.77;3.87;;;20.00;99.90;;;;;;5039549;28;20017;-68
2023/10/09 14:45:54;;;;;;;13.87;4.13;;;20.00;99.90;;;;;;5039581;28;20018;-68
2023/10/09 14:48:26;;;;;;;9.68;3.55;;;20.00;99.90;;;;;;5039359;28;20095;-65
2023/10/09 14:50:57;;;;;;;9.52;3.97;;;20.00;99.90;;;;;;5038502;28;20026;-66
2023/10/09 14:53:26;;;;;;;15.32;4.07;;;19.90;99.90;;;;;;5038584;28;20025;-65
2023/10/09 14:56:03;;;;;;;8.15;3.42;;;20.00;99.90;;;;;;5039280;28;20030;-68
2023/10/09 14:58:30;;;;;;;8.43;4.18;;;20.00;99.90;;;;;;5038005;28;20053;-68
2023/10/09 15:00:56;;;;;;;9.93;3.83;;;20.10;99.90;;;;;;5038676;28;20029;-68
2023/10/09 15:03:22;;;;;;;7.65;3.70;;;20.10;99.90;;;;;;5039373;28;20049;-68
2023/10/09 15:05:48;;;;;;;10.32;3.88;;;20.20;99.90;;;;;;5039010;28;20017;-68
2023/10/09 15:08:14;;;;;;;6.13;3.53;;;20.20;99.90;;;;;;5038974;28;20022;-68
2023/10/09 15:10:55;;;;;;;8.82;3.45;;;20.20;99.90;;;;;;5038929;28;20026;-68
2023/10/09 15:13:27;;;;;;;7.63;3.50;;;20.30;99.90;;;;;;5038998;28;20018;-68
2023/10/09 15:15:54;;;;;;;19.90;4.03;;;20.30;99.90;;;;;;5038938;28;20029;-74
2023/10/09 15:18:21;;;;;;;10.57;3.67;;;20.40;99.90;;;;;;5038013;28;20018;-73
2023/10/09 15:20:47;;;;;;;8.70;3.35;;;20.40;99.90;;;;;;5037764;28;20112;-73
2023/10/09 15:23:13;;;;;;;11.48;4.43;;;20.20;99.90;;;;;;5038694;28;20029;-74
2023/10/09 15:25:39;;;;;;;7.88;3.90;;;20.30;99.90;;;;;;5038075;28;20021;-74
2023/10/09 15:28:06;;;;;;;9.73;4.03;;;20.20;99.90;;;;;;5037967;28;20028;-74
2023/10/09 15:30:33;;;;;;;9.32;4.18;;;20.10;99.90;;;;;;5038931;28;20025;-74
2023/10/09 15:32:59;;;;;;;10.82;4.05;;;20.00;99.90;;;;;;5037772;28;20075;-74
2023/10/09 15:35:28;;;;;;;11.63;4.07;;;20.10;99.90;;;;;;5038711;28;20021;-74
2023/10/09 15:37:53;;;;;;;5.93;3.67;;;20.00;99.90;;;;;;5037934;28;20030;-74
2023/10/09 15:40:23;;;;;;;9.30;4.00;;;19.80;99.90;;;;;;5038788;28;20021;-74
2023/10/09 15:42:50;;;;;;;13.93;4.22;;;19.50;99.90;;;;;;5038676;28;20026;-74
2023/10/09 15:45:21;;;;;;;16.13;4.35;;;19.30;99.90;;;;;;5037362;28;20025;-74
2023/10/09 15:47:47;;;;;;;7.75;4.10;;;19.10;99.90;;;;;;5037294;28;20090;-74
2023/10/09 15:50:14;;;;;;;10.18;4.00;;;18.90;99.90;;;;;;5037414;28;20030;-74
2023/10/09 15:52:40;;;;;;;6.55;3.50;;;18.90;99.90;;;;;;5038154;28;20022;-74
2023/10/09 15:55:13;;;;;;;7.63;3.67;;;18.90;99.90;;;;;;5038418;28;20097;-74
2023/10/09 15:57:39;;;;;;;12.75;4.63;;;19.00;99.90;;;;;;5038125;28;20079;-74
2023/10/09 16:00:13;;;;;;;12.80;4.28;;;18.90;99.90;;;;;;5038043;28;20017;-74
2023/10/09 16:02:43;;;;;;;9.25;3.22;;;19.00;99.90;;;;;;5038046;28;20089;-74
2023/10/09 16:05:11;;;;;;;9.50;3.88;;;19.10;99.90;;;;;;5037252;28;20088;-74
2023/10/09 16:07:40;;;;;;;5.78;3.08;;;19.30;99.90;;;;;;5037131;28;20027;-74
2023/10/09 16:10:08;;;;;;;10.45;4.38;;;19.20;99.90;;;;;;5038026;28;20030;-74
2023/10/09 16:12:34;;;;;;;10.82;4.85;;;19.10;99.90;;;;;;5037229;28;20021;-74